Aérodrome :
LOGIN :

S'inscrire | Disclaimer

   EN    FR    IT 

 










Légende :    VFR   VFR Marginal   IFR   IFR Intensif   IFR Très Intensif
Visi : 
Plafond : 
>= 8 km
>= 3000ft
5 à 8 km
1000 à 3000 ft
1500m à 5 km
500 à 1000 ft
800 à 1500m
200 à 500 ft
< 800m
< 200 ft
Symboles :   Orages  Brouillard  Fortes neiges  Fortes précipitations  Vent > 20 kt
SIGMETs :   Divers  Orages  Givrage  Turbulence  Onde Orograph.  Cendres Volcan.







- Altitude de l'aérodrome : 538 ft
- Code IATA : TNF
- Voir les cartes d'approche


LFPN - Toussus Le Noble

DERNIER METAR :
  • 221000Z AUTO 19008KT 0800 R25R/1100N -SN FZFG BKN004/// OVC010/// ///TCU M00/M01 Q1007 TEMPO SN BKN004

METARs EXPIRÉS :
  • 220930Z AUTO 18008KT 0800 0750 R25R/1100N SN FZFG OVC005/// ///CB M00/M01 Q1007 TEMPO SN BKN004
  • 220900Z AUTO 18009KT 1200 1100 R25R/1700U -SN BR OVC005/// ///TCU M01/M02 Q1007 TEMPO SN BKN004
  • 220830Z AUTO 17009KT 1900 -SN BR OVC006/// ///CB M01/M02 Q1007 TEMPO 1200 SN BKN004
  • 220800Z AUTO 17009KT 2400 -SN BR OVC006/// ///TCU M01/M03 Q1008 TEMPO 1200 SN BKN004
  • 220730Z AUTO 17009KT 4500 BR BKN007/// BKN017/// BKN049/// ///CB M01/M03 Q1008 TEMPO 1200 SN BKN004
  • 220700Z AUTO 17009KT 4800 BR BKN007 BKN032 BKN046 M02/M03 Q1009 TEMPO 1200 SN BKN004

TAF AMD TAF LFPN
Valide du 22 à 09h jusqu'au 22 à 18h UTC


220934Z 2209/2218 19010KT 4000 -SN BKN008
TEMPO 2209/2212 0800 SN BKN004
BECMG 2212/2213 6000 NSW
TEMPO 2213/2218 4000 BR BKN004
ATIS : +33 1 39 56 54 70
Pas de NOTAMs connus pour ce terrain.



MET'MAP, la Météo Aéronautique d'un coup d'oeil ! - Copyright ORBIFLY Décembre 2007 - Disclaimer

ORBIFLY MET'MAP TEAM :

Programmation & Développement : Alexandra Zaïnal
Conception & Développement : Baudouin d'Aumeries
Co-Programmation & Développement : Marc-Olivier Méhu
Soutien technique & logistique : Manuel Goepfert

Contact : metmap@orbifly.com




SOURCES & CREDITS :

   NOAA